sensor_id;sensor_type;location;lat;lon;timestamp;P1;durP1;ratioP1;P2;durP2;ratioP2
64291;SDS011;50628;51.008;13.658;2023-02-08T00:00:32;43.77;;;25.93;;
64291;SDS011;50628;51.008;13.658;2023-02-08T00:05:34;46.50;;;25.90;;
64291;SDS011;50628;51.008;13.658;2023-02-08T00:10:36;42.27;;;25.23;;
64291;SDS011;50628;51.008;13.658;2023-02-08T00:15:41;40.23;;;26.07;;
64291;SDS011;50628;51.008;13.658;2023-02-08T00:20:43;40.63;;;24.67;;
64291;SDS011;50628;51.008;13.658;2023-02-08T00:25:45;38.30;;;24.37;;
64291;SDS011;50628;51.008;13.658;2023-02-08T00:30:48;38.20;;;23.77;;
64291;SDS011;50628;51.008;13.658;2023-02-08T00:35:51;43.17;;;23.93;;
64291;SDS011;50628;51.008;13.658;2023-02-08T00:40:59;38.43;;;22.73;;
64291;SDS011;50628;51.008;13.658;2023-02-08T00:46:02;35.70;;;21.77;;
64291;SDS011;50628;51.008;13.658;2023-02-08T00:51:05;52.13;;;30.33;;
64291;SDS011;50628;51.008;13.658;2023-02-08T00:56:09;39.97;;;23.47;;
64291;SDS011;50628;51.008;13.658;2023-02-08T01:01:13;35.43;;;23.00;;
64291;SDS011;50628;51.008;13.658;2023-02-08T01:06:16;37.23;;;21.90;;
64291;SDS011;50628;51.008;13.658;2023-02-08T01:11:19;38.63;;;22.83;;
64291;SDS011;50628;51.008;13.658;2023-02-08T01:16:26;35.63;;;21.07;;
64291;SDS011;50628;51.008;13.658;2023-02-08T01:21:31;37.77;;;21.77;;
64291;SDS011;50628;51.008;13.658;2023-02-08T01:26:33;42.40;;;22.83;;
64291;SDS011;50628;51.008;13.658;2023-02-08T01:31:40;37.30;;;21.10;;
64291;SDS011;50628;51.008;13.658;2023-02-08T01:36:43;32.93;;;21.37;;
64291;SDS011;50628;51.008;13.658;2023-02-08T01:41:45;31.63;;;20.23;;
64291;SDS011;50628;51.008;13.658;2023-02-08T01:46:49;33.93;;;20.97;;
64291;SDS011;50628;51.008;13.658;2023-02-08T01:51:55;35.73;;;22.63;;
64291;SDS011;50628;51.008;13.658;2023-02-08T01:57:01;32.13;;;19.40;;
64291;SDS011;50628;51.008;13.658;2023-02-08T02:02:05;36.60;;;20.87;;
64291;SDS011;50628;51.008;13.658;2023-02-08T02:07:10;37.83;;;21.20;;
64291;SDS011;50628;51.008;13.658;2023-02-08T02:12:13;32.97;;;20.07;;
64291;SDS011;50628;51.008;13.658;2023-02-08T02:17:17;36.50;;;21.33;;
64291;SDS011;50628;51.008;13.658;2023-02-08T02:22:28;33.57;;;21.30;;
64291;SDS011;50628;51.008;13.658;2023-02-08T02:27:54;42.10;;;26.87;;
64291;SDS011;50628;51.008;13.658;2023-02-08T02:33:31;32.63;;;19.53;;
64291;SDS011;50628;51.008;13.658;2023-02-08T02:38:45;34.43;;;20.27;;
64291;SDS011;50628;51.008;13.658;2023-02-08T02:43:55;32.73;;;19.57;;
64291;SDS011;50628;51.008;13.658;2023-02-08T02:49:02;30.50;;;19.77;;
64291;SDS011;50628;51.008;13.658;2023-02-08T02:54:10;37.87;;;20.43;;
64291;SDS011;50628;51.008;13.658;2023-02-08T02:59:15;31.73;;;18.63;;
64291;SDS011;50628;51.008;13.658;2023-02-08T03:09:57;35.30;;;22.50;;
64291;SDS011;50628;51.008;13.658;2023-02-08T03:15:14;35.47;;;21.23;;
64291;SDS011;50628;51.008;13.658;2023-02-08T03:20:31;33.33;;;19.53;;
64291;SDS011;50628;51.008;13.658;2023-02-08T03:25:39;31.77;;;18.70;;
64291;SDS011;50628;51.008;13.658;2023-02-08T03:30:51;30.80;;;19.17;;
64291;SDS011;50628;51.008;13.658;2023-02-08T03:36:00;34.40;;;18.73;;
64291;SDS011;50628;51.008;13.658;2023-02-08T03:41:06;36.57;;;20.50;;
64291;SDS011;50628;51.008;13.658;2023-02-08T03:46:14;35.37;;;20.53;;
64291;SDS011;50628;51.008;13.658;2023-02-08T03:51:22;34.77;;;20.43;;
64291;SDS011;50628;51.008;13.658;2023-02-08T03:56:27;36.40;;;22.10;;
64291;SDS011;50628;51.008;13.658;2023-02-08T04:01:37;35.13;;;20.73;;
64291;SDS011;50628;51.008;13.658;2023-02-08T04:06:44;33.90;;;21.30;;
64291;SDS011;50628;51.008;13.658;2023-02-08T04:11:47;33.90;;;19.00;;
64291;SDS011;50628;51.008;13.658;2023-02-08T04:16:48;34.27;;;18.83;;
64291;SDS011;50628;51.008;13.658;2023-02-08T04:21:53;35.07;;;19.67;;
64291;SDS011;50628;51.008;13.658;2023-02-08T04:26:55;32.43;;;20.77;;
64291;SDS011;50628;51.008;13.658;2023-02-08T04:31:57;38.30;;;23.87;;
64291;SDS011;50628;51.008;13.658;2023-02-08T04:37:00;48.43;;;27.67;;
64291;SDS011;50628;51.008;13.658;2023-02-08T04:42:02;36.47;;;22.90;;
64291;SDS011;50628;51.008;13.658;2023-02-08T04:47:04;33.77;;;20.00;;
64291;SDS011;50628;51.008;13.658;2023-02-08T04:52:07;36.13;;;18.90;;
64291;SDS011;50628;51.008;13.658;2023-02-08T04:57:10;37.33;;;21.17;;
64291;SDS011;50628;51.008;13.658;2023-02-08T05:02:13;34.03;;;20.90;;
64291;SDS011;50628;51.008;13.658;2023-02-08T05:07:17;43.43;;;22.33;;
64291;SDS011;50628;51.008;13.658;2023-02-08T05:12:18;34.47;;;19.77;;
64291;SDS011;50628;51.008;13.658;2023-02-08T05:17:20;33.03;;;19.37;;
64291;SDS011;50628;51.008;13.658;2023-02-08T05:22:23;34.93;;;20.50;;
64291;SDS011;50628;51.008;13.658;2023-02-08T05:27:25;32.27;;;20.13;;
64291;SDS011;50628;51.008;13.658;2023-02-08T05:32:27;28.87;;;17.53;;
64291;SDS011;50628;51.008;13.658;2023-02-08T05:37:31;26.90;;;17.93;;
64291;SDS011;50628;51.008;13.658;2023-02-08T05:42:32;35.30;;;19.07;;
64291;SDS011;50628;51.008;13.658;2023-02-08T05:47:35;41.20;;;23.00;;
64291;SDS011;50628;51.008;13.658;2023-02-08T05:52:38;50.37;;;29.37;;
64291;SDS011;50628;51.008;13.658;2023-02-08T05:57:40;46.40;;;30.33;;
64291;SDS011;50628;51.008;13.658;2023-02-08T06:02:42;46.43;;;29.33;;
64291;SDS011;50628;51.008;13.658;2023-02-08T06:07:45;46.30;;;28.67;;
64291;SDS011;50628;51.008;13.658;2023-02-08T06:12:47;37.07;;;21.23;;
64291;SDS011;50628;51.008;13.658;2023-02-08T06:17:49;41.83;;;21.90;;
64291;SDS011;50628;51.008;13.658;2023-02-08T06:22:53;42.37;;;20.77;;
64291;SDS011;50628;51.008;13.658;2023-02-08T06:27:55;30.17;;;17.73;;
64291;SDS011;50628;51.008;13.658;2023-02-08T06:32:57;39.30;;;22.53;;
64291;SDS011;50628;51.008;13.658;2023-02-08T06:38:00;38.43;;;23.27;;
64291;SDS011;50628;51.008;13.658;2023-02-08T06:43:02;36.53;;;21.77;;
64291;SDS011;50628;51.008;13.658;2023-02-08T06:48:04;38.43;;;24.17;;
64291;SDS011;50628;51.008;13.658;2023-02-08T06:53:07;33.10;;;18.10;;
64291;SDS011;50628;51.008;13.658;2023-02-08T06:58:09;39.27;;;19.67;;
64291;SDS011;50628;51.008;13.658;2023-02-08T07:03:11;37.70;;;18.57;;
64291;SDS011;50628;51.008;13.658;2023-02-08T07:08:15;38.47;;;19.33;;
64291;SDS011;50628;51.008;13.658;2023-02-08T07:13:17;36.73;;;21.70;;
64291;SDS011;50628;51.008;13.658;2023-02-08T07:18:19;46.23;;;24.60;;
64291;SDS011;50628;51.008;13.658;2023-02-08T07:23:22;36.80;;;21.67;;
64291;SDS011;50628;51.008;13.658;2023-02-08T07:28:24;33.93;;;18.53;;
64291;SDS011;50628;51.008;13.658;2023-02-08T07:33:26;33.73;;;18.43;;
64291;SDS011;50628;51.008;13.658;2023-02-08T07:38:29;29.83;;;18.07;;
64291;SDS011;50628;51.008;13.658;2023-02-08T07:43:33;42.93;;;23.70;;
64291;SDS011;50628;51.008;13.658;2023-02-08T07:48:36;44.43;;;25.27;;
64291;SDS011;50628;51.008;13.658;2023-02-08T07:53:40;48.37;;;25.63;;
64291;SDS011;50628;51.008;13.658;2023-02-08T07:58:42;40.93;;;23.13;;
64291;SDS011;50628;51.008;13.658;2023-02-08T08:03:44;39.37;;;24.63;;
64291;SDS011;50628;51.008;13.658;2023-02-08T08:08:47;38.90;;;22.47;;
64291;SDS011;50628;51.008;13.658;2023-02-08T08:13:49;37.77;;;22.17;;
64291;SDS011;50628;51.008;13.658;2023-02-08T08:18:51;39.00;;;21.37;;
64291;SDS011;50628;51.008;13.658;2023-02-08T08:23:55;39.80;;;22.27;;
64291;SDS011;50628;51.008;13.658;2023-02-08T08:28:57;39.63;;;21.70;;
64291;SDS011;50628;51.008;13.658;2023-02-08T08:33:58;45.30;;;25.50;;
64291;SDS011;50628;51.008;13.658;2023-02-08T08:39:02;36.53;;;21.67;;
64291;SDS011;50628;51.008;13.658;2023-02-08T08:44:04;43.10;;;23.30;;
64291;SDS011;50628;51.008;13.658;2023-02-08T08:49:06;40.77;;;24.23;;
64291;SDS011;50628;51.008;13.658;2023-02-08T08:54:09;41.33;;;22.77;;
64291;SDS011;50628;51.008;13.658;2023-02-08T08:59:11;45.70;;;24.37;;
64291;SDS011;50628;51.008;13.658;2023-02-08T09:04:13;45.77;;;26.23;;
64291;SDS011;50628;51.008;13.658;2023-02-08T09:09:16;48.33;;;25.90;;
64291;SDS011;50628;51.008;13.658;2023-02-08T09:14:18;46.43;;;25.77;;
64291;SDS011;50628;51.008;13.658;2023-02-08T09:19:20;47.63;;;25.77;;
64291;SDS011;50628;51.008;13.658;2023-02-08T09:24:24;52.40;;;28.67;;
64291;SDS011;50628;51.008;13.658;2023-02-08T09:29:25;46.60;;;29.03;;
64291;SDS011;50628;51.008;13.658;2023-02-08T09:34:28;51.03;;;30.67;;
64291;SDS011;50628;51.008;13.658;2023-02-08T09:39:32;51.50;;;28.70;;
64291;SDS011;50628;51.008;13.658;2023-02-08T09:44:35;46.90;;;27.03;;
64291;SDS011;50628;51.008;13.658;2023-02-08T09:49:47;37.73;;;24.57;;
64291;SDS011;50628;51.008;13.658;2023-02-08T09:54:57;40.30;;;23.40;;
64291;SDS011;50628;51.008;13.658;2023-02-08T10:00:05;41.40;;;24.57;;
64291;SDS011;50628;51.008;13.658;2023-02-08T10:05:14;39.67;;;21.60;;
64291;SDS011;50628;51.008;13.658;2023-02-08T10:10:23;38.70;;;23.00;;
64291;SDS011;50628;51.008;13.658;2023-02-08T10:15:39;38.67;;;22.93;;
64291;SDS011;50628;51.008;13.658;2023-02-08T10:20:49;46.93;;;21.67;;
64291;SDS011;50628;51.008;13.658;2023-02-08T10:26:08;58.20;;;21.13;;
64291;SDS011;50628;51.008;13.658;2023-02-08T10:31:20;35.40;;;21.07;;
64291;SDS011;50628;51.008;13.658;2023-02-08T10:36:30;37.37;;;21.77;;
64291;SDS011;50628;51.008;13.658;2023-02-08T10:41:35;37.63;;;21.47;;
64291;SDS011;50628;51.008;13.658;2023-02-08T10:46:39;35.63;;;20.67;;
64291;SDS011;50628;51.008;13.658;2023-02-08T10:51:48;51.37;;;24.67;;
64291;SDS011;50628;51.008;13.658;2023-02-08T10:56:51;43.43;;;21.60;;
64291;SDS011;50628;51.008;13.658;2023-02-08T11:01:56;62.33;;;24.00;;
64291;SDS011;50628;51.008;13.658;2023-02-08T11:06:59;37.50;;;22.63;;
64291;SDS011;50628;51.008;13.658;2023-02-08T11:12:21;44.53;;;25.07;;
64291;SDS011;50628;51.008;13.658;2023-02-08T11:17:24;52.60;;;22.10;;
64291;SDS011;50628;51.008;13.658;2023-02-08T11:22:29;44.70;;;21.43;;
64291;SDS011;50628;51.008;13.658;2023-02-08T11:27:36;34.80;;;22.57;;
64291;SDS011;50628;51.008;13.658;2023-02-08T11:32:41;91.47;;;28.13;;
64291;SDS011;50628;51.008;13.658;2023-02-08T11:37:45;44.67;;;24.00;;
64291;SDS011;50628;51.008;13.658;2023-02-08T11:42:49;46.77;;;23.83;;
64291;SDS011;50628;51.008;13.658;2023-02-08T11:47:52;36.60;;;22.20;;
64291;SDS011;50628;51.008;13.658;2023-02-08T11:52:56;35.23;;;19.13;;
64291;SDS011;50628;51.008;13.658;2023-02-08T11:58:01;36.80;;;21.70;;
64291;SDS011;50628;51.008;13.658;2023-02-08T12:03:04;36.37;;;20.27;;
64291;SDS011;50628;51.008;13.658;2023-02-08T12:08:14;29.50;;;15.57;;
64291;SDS011;50628;51.008;13.658;2023-02-08T12:19:08;43.67;;;16.93;;
64291;SDS011;50628;51.008;13.658;2023-02-08T12:24:27;31.87;;;16.23;;
64291;SDS011;50628;51.008;13.658;2023-02-08T12:29:43;32.67;;;16.50;;
64291;SDS011;50628;51.008;13.658;2023-02-08T12:34:55;34.10;;;16.60;;
64291;SDS011;50628;51.008;13.658;2023-02-08T12:40:18;30.37;;;17.23;;
64291;SDS011;50628;51.008;13.658;2023-02-08T12:51:18;36.30;;;16.80;;
64291;SDS011;50628;51.008;13.658;2023-02-08T12:56:26;42.30;;;16.53;;
64291;SDS011;50628;51.008;13.658;2023-02-08T13:01:33;27.23;;;16.27;;
64291;SDS011;50628;51.008;13.658;2023-02-08T13:06:41;28.83;;;15.90;;
64291;SDS011;50628;51.008;13.658;2023-02-08T13:11:46;27.60;;;15.73;;
64291;SDS011;50628;51.008;13.658;2023-02-08T13:16:54;58.63;;;16.83;;
64291;SDS011;50628;51.008;13.658;2023-02-08T13:22:00;24.80;;;15.67;;
64291;SDS011;50628;51.008;13.658;2023-02-08T13:27:04;35.13;;;16.30;;
64291;SDS011;50628;51.008;13.658;2023-02-08T13:32:09;24.70;;;15.70;;
64291;SDS011;50628;51.008;13.658;2023-02-08T13:37:20;31.40;;;16.60;;
64291;SDS011;50628;51.008;13.658;2023-02-08T13:42:26;32.73;;;16.50;;
64291;SDS011;50628;51.008;13.658;2023-02-08T13:47:33;24.43;;;12.33;;
64291;SDS011;50628;51.008;13.658;2023-02-08T13:52:48;26.57;;;15.73;;
64291;SDS011;50628;51.008;13.658;2023-02-08T13:57:52;29.43;;;15.77;;
64291;SDS011;50628;51.008;13.658;2023-02-08T14:03:00;28.83;;;16.03;;
64291;SDS011;50628;51.008;13.658;2023-02-08T14:08:03;67.57;;;34.50;;
64291;SDS011;50628;51.008;13.658;2023-02-08T14:13:15;26.53;;;14.00;;
64291;SDS011;50628;51.008;13.658;2023-02-08T14:18:28;17.63;;;10.77;;
64291;SDS011;50628;51.008;13.658;2023-02-08T14:23:31;33.10;;;11.67;;
64291;SDS011;50628;51.008;13.658;2023-02-08T14:28:38;26.53;;;11.60;;
64291;SDS011;50628;51.008;13.658;2023-02-08T14:33:50;24.43;;;11.47;;
64291;SDS011;50628;51.008;13.658;2023-02-08T14:50:09;30.17;;;13.27;;
64291;SDS011;50628;51.008;13.658;2023-02-08T14:55:17;33.67;;;13.57;;
64291;SDS011;50628;51.008;13.658;2023-02-08T15:00:26;21.97;;;12.87;;
64291;SDS011;50628;51.008;13.658;2023-02-08T15:05:32;22.17;;;12.40;;
64291;SDS011;50628;51.008;13.658;2023-02-08T15:10:39;25.83;;;12.93;;
64291;SDS011;50628;51.008;13.658;2023-02-08T15:15:43;23.10;;;13.07;;
64291;SDS011;50628;51.008;13.658;2023-02-08T15:20:55;37.63;;;13.63;;
64291;SDS011;50628;51.008;13.658;2023-02-08T15:26:02;30.70;;;14.23;;
64291;SDS011;50628;51.008;13.658;2023-02-08T15:31:06;43.77;;;13.70;;
64291;SDS011;50628;51.008;13.658;2023-02-08T15:36:17;37.07;;;14.50;;
64291;SDS011;50628;51.008;13.658;2023-02-08T15:41:26;24.70;;;13.90;;
64291;SDS011;50628;51.008;13.658;2023-02-08T15:46:29;36.03;;;15.53;;
64291;SDS011;50628;51.008;13.658;2023-02-08T15:51:33;23.93;;;13.47;;
64291;SDS011;50628;51.008;13.658;2023-02-08T15:56:36;40.97;;;15.43;;
64291;SDS011;50628;51.008;13.658;2023-02-08T16:01:39;36.37;;;14.23;;
64291;SDS011;50628;51.008;13.658;2023-02-08T16:06:45;22.73;;;13.30;;
64291;SDS011;50628;51.008;13.658;2023-02-08T16:11:49;22.70;;;13.33;;
64291;SDS011;50628;51.008;13.658;2023-02-08T16:16:53;30.73;;;15.10;;
64291;SDS011;50628;51.008;13.658;2023-02-08T16:22:13;43.00;;;15.30;;
64291;SDS011;50628;51.008;13.658;2023-02-08T16:27:25;29.60;;;13.77;;
64291;SDS011;50628;51.008;13.658;2023-02-08T16:32:30;30.60;;;16.13;;
64291;SDS011;50628;51.008;13.658;2023-02-08T16:37:36;24.20;;;13.83;;
64291;SDS011;50628;51.008;13.658;2023-02-08T16:42:39;23.57;;;14.10;;
64291;SDS011;50628;51.008;13.658;2023-02-08T16:47:42;31.77;;;15.90;;
64291;SDS011;50628;51.008;13.658;2023-02-08T16:52:48;31.30;;;16.13;;
64291;SDS011;50628;51.008;13.658;2023-02-08T16:57:54;27.97;;;15.83;;
64291;SDS011;50628;51.008;13.658;2023-02-08T17:02:58;30.37;;;16.10;;
64291;SDS011;50628;51.008;13.658;2023-02-08T17:08:02;27.77;;;16.30;;
64291;SDS011;50628;51.008;13.658;2023-02-08T17:13:07;26.77;;;15.93;;
64291;SDS011;50628;51.008;13.658;2023-02-08T17:18:11;34.93;;;16.00;;
64291;SDS011;50628;51.008;13.658;2023-02-08T17:23:14;54.97;;;17.70;;
64291;SDS011;50628;51.008;13.658;2023-02-08T17:28:17;33.40;;;17.53;;
64291;SDS011;50628;51.008;13.658;2023-02-08T17:33:20;61.13;;;19.10;;
64291;SDS011;50628;51.008;13.658;2023-02-08T17:38:31;40.73;;;18.03;;
64291;SDS011;50628;51.008;13.658;2023-02-08T17:43:34;39.47;;;17.80;;
64291;SDS011;50628;51.008;13.658;2023-02-08T17:48:39;41.03;;;18.70;;
64291;SDS011;50628;51.008;13.658;2023-02-08T17:53:42;33.33;;;18.90;;
64291;SDS011;50628;51.008;13.658;2023-02-08T17:58:44;32.30;;;18.17;;
64291;SDS011;50628;51.008;13.658;2023-02-08T18:03:51;33.47;;;19.30;;
64291;SDS011;50628;51.008;13.658;2023-02-08T18:08:55;29.73;;;17.23;;
64291;SDS011;50628;51.008;13.658;2023-02-08T18:14:00;41.57;;;19.53;;
64291;SDS011;50628;51.008;13.658;2023-02-08T18:19:08;32.47;;;18.93;;
64291;SDS011;50628;51.008;13.658;2023-02-08T18:24:12;37.67;;;20.20;;
64291;SDS011;50628;51.008;13.658;2023-02-08T18:29:14;36.77;;;20.57;;
64291;SDS011;50628;51.008;13.658;2023-02-08T18:34:16;36.90;;;21.87;;
64291;SDS011;50628;51.008;13.658;2023-02-08T18:39:20;42.87;;;23.57;;
64291;SDS011;50628;51.008;13.658;2023-02-08T18:44:24;40.60;;;23.67;;
64291;SDS011;50628;51.008;13.658;2023-02-08T18:49:26;38.10;;;23.10;;
64291;SDS011;50628;51.008;13.658;2023-02-08T18:54:29;63.53;;;35.40;;
64291;SDS011;50628;51.008;13.658;2023-02-08T18:59:31;39.63;;;23.97;;
64291;SDS011;50628;51.008;13.658;2023-02-08T19:04:35;45.50;;;30.40;;
64291;SDS011;50628;51.008;13.658;2023-02-08T19:09:39;51.10;;;33.13;;
64291;SDS011;50628;51.008;13.658;2023-02-08T19:14:42;46.17;;;32.07;;
64291;SDS011;50628;51.008;13.658;2023-02-08T19:19:48;49.93;;;32.43;;
64291;SDS011;50628;51.008;13.658;2023-02-08T19:24:51;46.83;;;28.93;;
64291;SDS011;50628;51.008;13.658;2023-02-08T19:29:53;44.53;;;30.00;;
64291;SDS011;50628;51.008;13.658;2023-02-08T19:34:56;43.60;;;25.83;;
64291;SDS011;50628;51.008;13.658;2023-02-08T19:39:59;35.93;;;22.87;;
64291;SDS011;50628;51.008;13.658;2023-02-08T19:45:01;37.07;;;22.63;;
64291;SDS011;50628;51.008;13.658;2023-02-08T19:50:03;40.47;;;22.57;;
64291;SDS011;50628;51.008;13.658;2023-02-08T19:55:07;43.73;;;25.07;;
64291;SDS011;50628;51.008;13.658;2023-02-08T20:00:10;41.87;;;20.90;;
64291;SDS011;50628;51.008;13.658;2023-02-08T20:05:13;34.53;;;20.17;;
64291;SDS011;50628;51.008;13.658;2023-02-08T20:10:16;37.83;;;20.17;;
64291;SDS011;50628;51.008;13.658;2023-02-08T20:15:18;27.43;;;16.67;;
64291;SDS011;50628;51.008;13.658;2023-02-08T20:20:20;32.87;;;20.20;;
64291;SDS011;50628;51.008;13.658;2023-02-08T20:25:23;41.40;;;21.97;;
64291;SDS011;50628;51.008;13.658;2023-02-08T20:30:25;39.97;;;22.67;;
64291;SDS011;50628;51.008;13.658;2023-02-08T20:35:27;41.73;;;22.73;;
64291;SDS011;50628;51.008;13.658;2023-02-08T20:40:30;40.00;;;22.40;;
64291;SDS011;50628;51.008;13.658;2023-02-08T20:45:32;38.23;;;21.27;;
64291;SDS011;50628;51.008;13.658;2023-02-08T20:50:34;40.97;;;22.43;;
64291;SDS011;50628;51.008;13.658;2023-02-08T20:55:40;41.43;;;20.73;;
64291;SDS011;50628;51.008;13.658;2023-02-08T21:00:42;40.83;;;22.53;;
64291;SDS011;50628;51.008;13.658;2023-02-08T21:05:44;42.00;;;22.33;;
64291;SDS011;50628;51.008;13.658;2023-02-08T21:10:47;41.60;;;22.63;;
64291;SDS011;50628;51.008;13.658;2023-02-08T21:15:49;40.63;;;22.90;;
64291;SDS011;50628;51.008;13.658;2023-02-08T21:20:50;46.60;;;24.37;;
64291;SDS011;50628;51.008;13.658;2023-02-08T21:25:54;44.20;;;24.67;;
64291;SDS011;50628;51.008;13.658;2023-02-08T21:30:56;38.03;;;22.37;;
64291;SDS011;50628;51.008;13.658;2023-02-08T21:35:59;36.40;;;21.10;;
64291;SDS011;50628;51.008;13.658;2023-02-08T21:41:06;44.73;;;24.00;;
64291;SDS011;50628;51.008;13.658;2023-02-08T21:46:09;45.77;;;24.60;;
64291;SDS011;50628;51.008;13.658;2023-02-08T21:51:11;38.60;;;22.20;;
64291;SDS011;50628;51.008;13.658;2023-02-08T21:56:31;39.23;;;22.17;;
64291;SDS011;50628;51.008;13.658;2023-02-08T22:01:34;37.37;;;21.73;;
64291;SDS011;50628;51.008;13.658;2023-02-08T22:06:35;35.33;;;19.53;;
64291;SDS011;50628;51.008;13.658;2023-02-08T22:11:39;36.47;;;19.37;;
64291;SDS011;50628;51.008;13.658;2023-02-08T22:16:41;35.10;;;19.57;;
64291;SDS011;50628;51.008;13.658;2023-02-08T22:21:43;36.30;;;18.33;;
64291;SDS011;50628;51.008;13.658;2023-02-08T22:26:47;31.03;;;16.43;;
64291;SDS011;50628;51.008;13.658;2023-02-08T22:31:49;32.13;;;16.53;;
64291;SDS011;50628;51.008;13.658;2023-02-08T22:36:50;33.00;;;18.20;;
64291;SDS011;50628;51.008;13.658;2023-02-08T22:41:54;36.17;;;18.77;;
64291;SDS011;50628;51.008;13.658;2023-02-08T22:46:56;39.53;;;21.97;;
64291;SDS011;50628;51.008;13.658;2023-02-08T22:52:00;34.63;;;18.73;;
64291;SDS011;50628;51.008;13.658;2023-02-08T22:57:04;39.10;;;20.00;;
64291;SDS011;50628;51.008;13.658;2023-02-08T23:02:06;34.77;;;20.90;;
64291;SDS011;50628;51.008;13.658;2023-02-08T23:07:08;33.47;;;18.63;;
64291;SDS011;50628;51.008;13.658;2023-02-08T23:12:11;35.80;;;20.57;;
64291;SDS011;50628;51.008;13.658;2023-02-08T23:17:13;37.93;;;20.70;;
64291;SDS011;50628;51.008;13.658;2023-02-08T23:22:15;31.23;;;16.97;;
64291;SDS011;50628;51.008;13.658;2023-02-08T23:27:18;26.50;;;14.87;;
64291;SDS011;50628;51.008;13.658;2023-02-08T23:32:20;33.40;;;17.30;;
64291;SDS011;50628;51.008;13.658;2023-02-08T23:37:22;30.97;;;17.83;;
64291;SDS011;50628;51.008;13.658;2023-02-08T23:42:25;30.23;;;17.97;;
64291;SDS011;50628;51.008;13.658;2023-02-08T23:47:28;33.80;;;19.53;;
64291;SDS011;50628;51.008;13.658;2023-02-08T23:52:30;29.27;;;16.10;;
64291;SDS011;50628;51.008;13.658;2023-02-08T23:57:35;29.07;;;17.30;;
